Time;durP1;ratioP1;P1;durP2;ratioP2;P2;SDS_P1;SDS_P2;PMS_P1;PMS_P2;Temp;Humidity;BMP_temperature;BMP_pressure;BME280_temperature;BME280_humidity;BME280_pressure;Samples;Min_cycle;Max_cycle;Signal;HPM_P1;HPM_P2
2023/01/22 00:02:25;;;;;;;8.32;5.90;;;;;;;;;;4845319;29;20098;-88
2023/01/22 00:04:51;;;;;;;8.80;5.72;;;;;;;;;;4829891;29;20136;-88
2023/01/22 00:07:17;;;;;;;7.00;5.25;;;;;;;;;;4830542;29;20136;-89
2023/01/22 00:09:43;;;;;;;9.35;5.72;;;;;;;;;;4844953;29;20502;-91
2023/01/22 00:12:12;;;;;;;9.52;5.30;;;;;;;;;;4814879;29;20041;-89
2023/01/22 00:14:39;;;;;;;7.15;5.30;;;;;;;;;;4844942;29;20050;-94
2023/01/22 00:17:05;;;;;;;12.05;6.32;;;;;;;;;;4845350;29;20136;-89
2023/01/22 00:19:31;;;;;;;9.85;6.18;;;;;;;;;;4845791;29;20061;-89
2023/01/22 00:22:00;;;;;;;10.88;6.82;;;;;;;;;;4830852;29;20041;-89
2023/01/22 00:24:26;;;;;;;8.13;5.90;;;;;;;;;;4845475;29;20053;-90
2023/01/22 00:26:53;;;;;;;6.82;5.63;;;;;;;;;;4829196;29;20422;-89
2023/01/22 00:29:19;;;;;;;7.97;5.60;;;;;;;;;;4844615;29;20463;-90
2023/01/22 00:31:45;;;;;;;6.85;5.20;;;;;;;;;;4844871;29;20140;-93
2023/01/22 00:34:11;;;;;;;7.65;5.15;;;;;;;;;;4829020;29;20113;-92
2023/01/22 00:36:37;;;;;;;7.82;5.57;;;;;;;;;;4814279;29;20499;-90
2023/01/22 00:39:03;;;;;;;6.90;4.65;;;;;;;;;;4814603;29;20049;-90
2023/01/22 00:41:29;;;;;;;7.13;5.50;;;;;;;;;;4829426;29;20074;-90
2023/01/22 00:43:55;;;;;;;7.93;4.68;;;;;;;;;;4829343;29;20102;-89
2023/01/22 00:46:22;;;;;;;9.88;6.63;;;;;;;;;;4829390;29;20050;-92
2023/01/22 00:48:49;;;;;;;8.80;5.70;;;;;;;;;;4831009;29;20046;-92
2023/01/22 00:51:15;;;;;;;11.05;6.25;;;;;;;;;;4832616;29;20053;-88
2023/01/22 00:53:42;;;;;;;11.48;6.03;;;;;;;;;;4847808;29;20060;-89
2023/01/22 00:56:09;;;;;;;9.45;6.20;;;;;;;;;;4832440;29;20459;-90
2023/01/22 00:58:35;;;;;;;8.85;6.28;;;;;;;;;;4848057;29;20423;-89
2023/01/22 01:01:01;;;;;;;10.63;7.10;;;;;;;;;;4848609;29;20045;-89
2023/01/22 01:03:29;;;;;;;10.20;5.93;;;;;;;;;;4849381;29;20056;-92
2023/01/22 01:06:03;;;;;;;11.13;6.65;;;;;;;;;;4851404;29;20045;-90
2023/01/22 01:08:30;;;;;;;11.43;6.95;;;;;;;;;;4856017;29;20046;-92
2023/01/22 01:10:57;;;;;;;12.15;7.10;;;;;;;;;;4836164;29;20045;-93
2023/01/22 01:13:23;;;;;;;13.00;6.57;;;;;;;;;;4834546;29;20053;-93
2023/01/22 01:15:50;;;;;;;12.05;7.85;;;;;;;;;;4851058;29;20456;-91
2023/01/22 01:18:16;;;;;;;15.50;8.07;;;;;;;;;;4848993;29;20414;-94
2023/01/22 01:20:42;;;;;;;11.55;8.07;;;;;;;;;;4833465;29;20112;-93
2023/01/22 01:23:09;;;;;;;12.93;7.78;;;;;;;;;;4832792;29;20460;-94
2023/01/22 01:25:35;;;;;;;11.25;7.25;;;;;;;;;;4848489;29;20049;-94
2023/01/22 01:28:01;;;;;;;12.23;7.35;;;;;;;;;;4848109;29;20511;-93
2023/01/22 01:30:27;;;;;;;13.18;8.05;;;;;;;;;;4848763;29;20050;-90
2023/01/22 01:32:53;;;;;;;10.68;7.30;;;;;;;;;;4847757;29;20058;-91
2023/01/22 01:35:20;;;;;;;16.55;8.35;;;;;;;;;;4817720;29;20067;-94
2023/01/22 01:37:46;;;;;;;13.80;7.07;;;;;;;;;;4848191;29;20068;-92
2023/01/22 01:40:12;;;;;;;13.98;6.95;;;;;;;;;;4832786;29;20049;-93
2023/01/22 01:42:39;;;;;;;13.82;7.13;;;;;;;;;;4847680;29;20045;-91
2023/01/22 01:45:20;;;;;;;12.00;7.47;;;;;;;;;;4848129;29;20078;-90
2023/01/22 01:47:53;;;;;;;12.55;7.68;;;;;;;;;;4831820;29;20049;-92
2023/01/22 01:50:19;;;;;;;13.48;7.18;;;;;;;;;;4832058;29;20080;-91
2023/01/22 01:52:45;;;;;;;14.88;7.05;;;;;;;;;;4832042;29;20493;-90
2023/01/22 01:55:12;;;;;;;14.88;7.03;;;;;;;;;;4831952;29;20117;-90
2023/01/22 01:57:39;;;;;;;11.13;7.38;;;;;;;;;;4831827;29;20563;-91
2023/01/22 02:00:09;;;;;;;12.38;7.32;;;;;;;;;;4831061;29;20527;-90
2023/01/22 02:02:36;;;;;;;11.48;7.90;;;;;;;;;;4831453;29;20069;-90
2023/01/22 02:05:03;;;;;;;10.27;6.97;;;;;;;;;;4831713;29;20089;-90
2023/01/22 02:07:29;;;;;;;11.30;6.82;;;;;;;;;;4846784;29;20136;-90
2023/01/22 02:09:55;;;;;;;12.27;8.23;;;;;;;;;;4831533;29;20046;-89
2023/01/22 02:12:21;;;;;;;13.38;7.57;;;;;;;;;;4846961;29;20120;-89
2023/01/22 02:14:49;;;;;;;9.73;6.60;;;;;;;;;;4847506;29;20085;-89
2023/01/22 02:17:18;;;;;;;15.88;7.78;;;;;;;;;;4831648;29;20046;-93
2023/01/22 02:19:44;;;;;;;17.23;7.85;;;;;;;;;;4831415;29;20054;-91
2023/01/22 02:22:13;;;;;;;12.82;6.88;;;;;;;;;;4831480;29;20053;-91
2023/01/22 02:24:39;;;;;;;13.45;7.43;;;;;;;;;;4847287;29;20057;-89
2023/01/22 02:27:05;;;;;;;10.68;6.80;;;;;;;;;;4832868;29;20046;-90
2023/01/22 02:29:31;;;;;;;14.70;7.13;;;;;;;;;;4831528;29;20131;-90
2023/01/22 02:31:57;;;;;;;16.25;6.93;;;;;;;;;;4831733;29;20078;-94
2023/01/22 02:34:23;;;;;;;12.75;8.18;;;;;;;;;;4846626;29;20062;-93
2023/01/22 02:36:50;;;;;;;14.65;6.88;;;;;;;;;;4831170;29;20053;-93
2023/01/22 02:39:16;;;;;;;10.60;6.22;;;;;;;;;;4846749;29;20156;-92
2023/01/22 02:41:42;;;;;;;12.65;6.72;;;;;;;;;;4831634;29;20045;-92
2023/01/22 02:44:09;;;;;;;12.95;7.40;;;;;;;;;;4846627;29;20100;-91
2023/01/22 02:46:35;;;;;;;11.93;7.28;;;;;;;;;;4846774;29;20045;-93
2023/01/22 02:49:01;;;;;;;10.75;7.45;;;;;;;;;;4831259;29;20097;-92
2023/01/22 02:51:27;;;;;;;14.80;7.93;;;;;;;;;;4831072;29;20049;-91
2023/01/22 02:53:53;;;;;;;14.20;8.23;;;;;;;;;;4831180;29;20507;-91
2023/01/22 02:56:19;;;;;;;10.80;7.43;;;;;;;;;;4846477;29;20045;-94
2023/01/22 02:58:46;;;;;;;12.25;7.53;;;;;;;;;;4831461;29;20480;-93
2023/01/22 03:01:20;;;;;;;17.10;7.63;;;;;;;;;;4831466;29;20046;-95
2023/01/22 03:03:47;;;;;;;17.33;7.63;;;;;;;;;;4846693;29;20049;-96
2023/01/22 03:06:20;;;;;;;16.10;7.35;;;;;;;;;;4847054;29;20046;-91
2023/01/22 03:08:50;;;;;;;15.70;8.33;;;;;;;;;;4846185;29;20060;-89
2023/01/22 03:11:16;;;;;;;15.07;7.40;;;;;;;;;;4829572;29;20066;-90
2023/01/22 03:21:56;;;;;;;15.38;7.13;;;;;;;;;;4845821;29;20049;-90
2023/01/22 03:24:22;;;;;;;10.43;6.15;;;;;;;;;;4830830;29;20084;-90
2023/01/22 03:26:48;;;;;;;12.30;6.65;;;;;;;;;;4830468;29;20128;-90
2023/01/22 03:29:14;;;;;;;9.05;5.97;;;;;;;;;;4845616;29;20046;-90
2023/01/22 03:31:40;;;;;;;9.93;6.15;;;;;;;;;;4845387;29;20403;-90
2023/01/22 03:34:06;;;;;;;11.95;5.97;;;;;;;;;;4829891;29;20056;-90
2023/01/22 03:36:32;;;;;;;9.85;5.63;;;;;;;;;;4829850;29;20451;-90
2023/01/22 03:38:58;;;;;;;10.88;6.30;;;;;;;;;;4844941;29;20061;-90
2023/01/22 03:41:25;;;;;;;6.85;5.20;;;;;;;;;;4830768;29;20049;-90
2023/01/22 03:43:51;;;;;;;11.52;6.72;;;;;;;;;;4830170;29;20057;-90
2023/01/22 03:46:17;;;;;;;10.02;5.07;;;;;;;;;;4829850;29;20045;-91
2023/01/22 03:48:44;;;;;;;8.10;4.60;;;;;;;;;;4829891;29;20057;-90
2023/01/22 03:51:12;;;;;;;7.32;5.07;;;;;;;;;;4830156;29;20105;-90
2023/01/22 03:53:38;;;;;;;7.38;5.20;;;;;;;;;;4830251;29;20045;-93
2023/01/22 03:56:05;;;;;;;6.60;4.68;;;;;;;;;;4829983;29;20160;-90
2023/01/22 03:58:32;;;;;;;10.60;5.18;;;;;;;;;;4829872;29;20479;-91
2023/01/22 04:01:00;;;;;;;12.77;6.10;;;;;;;;;;4829667;29;20060;-90
2023/01/22 04:03:27;;;;;;;6.25;4.97;;;;;;;;;;4829730;29;20045;-91
2023/01/22 04:05:54;;;;;;;11.10;5.22;;;;;;;;;;4830622;29;20053;-90
2023/01/22 04:08:20;;;;;;;8.80;4.38;;;;;;;;;;4830685;29;20037;-91
2023/01/22 04:10:46;;;;;;;8.90;4.53;;;;;;;;;;4845229;29;20049;-91
2023/01/22 04:13:12;;;;;;;10.70;4.95;;;;;;;;;;4844987;29;20049;-91
2023/01/22 04:15:38;;;;;;;7.55;5.22;;;;;;;;;;4845776;29;20053;-92
2023/01/22 04:18:04;;;;;;;6.22;4.60;;;;;;;;;;4844977;29;20518;-93
2023/01/22 04:20:31;;;;;;;8.02;4.75;;;;;;;;;;4830155;29;20046;-95
2023/01/22 04:22:57;;;;;;;8.20;4.95;;;;;;;;;;4845297;29;20050;-95
2023/01/22 04:25:23;;;;;;;8.57;4.70;;;;;;;;;;4830319;29;20054;-96
2023/01/22 04:27:49;;;;;;;6.57;5.10;;;;;;;;;;4845743;29;20064;-96
2023/01/22 04:30:16;;;;;;;9.18;4.05;;;;;;;;;;4830916;29;20132;-91
2023/01/22 04:32:43;;;;;;;8.70;5.18;;;;;;;;;;4829636;29;20412;-90
2023/01/22 04:35:09;;;;;;;11.85;6.50;;;;;;;;;;4845243;29;20423;-90
2023/01/22 04:37:35;;;;;;;5.85;4.13;;;;;;;;;;4829347;29;20086;-90
2023/01/22 04:40:01;;;;;;;8.30;5.15;;;;;;;;;;4844709;29;20050;-90
2023/01/22 04:42:28;;;;;;;6.32;4.28;;;;;;;;;;4829405;29;20134;-90
2023/01/22 04:44:54;;;;;;;5.60;4.20;;;;;;;;;;4844425;29;20492;-90
2023/01/22 04:47:20;;;;;;;9.70;5.00;;;;;;;;;;4829529;29;20484;-91
2023/01/22 04:49:46;;;;;;;4.82;3.72;;;;;;;;;;4829067;29;20085;-90
2023/01/22 04:52:12;;;;;;;7.88;4.32;;;;;;;;;;4861083;29;20049;-92
2023/01/22 04:54:39;;;;;;;12.80;5.00;;;;;;;;;;4829368;29;20049;-95
2023/01/22 04:57:16;;;;;;;10.55;4.80;;;;;;;;;;4829447;29;20132;-90
2023/01/22 04:59:42;;;;;;;5.72;3.88;;;;;;;;;;4844471;29;20057;-91
2023/01/22 05:02:11;;;;;;;8.70;4.57;;;;;;;;;;4829547;29;20107;-90
2023/01/22 05:04:37;;;;;;;6.60;4.63;;;;;;;;;;4844183;29;20081;-90
2023/01/22 05:07:03;;;;;;;9.90;4.50;;;;;;;;;;4844307;29;20105;-90
2023/01/22 05:09:29;;;;;;;7.50;4.75;;;;;;;;;;4844911;29;20523;-91
2023/01/22 05:11:55;;;;;;;6.90;4.30;;;;;;;;;;4844340;29;20042;-92
2023/01/22 05:14:25;;;;;;;7.88;4.28;;;;;;;;;;4829395;29;20049;-92
2023/01/22 05:16:51;;;;;;;8.88;4.00;;;;;;;;;;4829156;29;20105;-90
2023/01/22 05:19:17;;;;;;;6.93;5.43;;;;;;;;;;4829231;29;20515;-91
2023/01/22 05:21:43;;;;;;;6.32;4.85;;;;;;;;;;4843996;29;20542;-90
2023/01/22 05:24:09;;;;;;;8.05;4.07;;;;;;;;;;4843991;29;20045;-92
2023/01/22 05:26:35;;;;;;;5.25;4.00;;;;;;;;;;4844391;29;20084;-89
2023/01/22 05:29:01;;;;;;;6.50;3.85;;;;;;;;;;4829387;29;20045;-90
2023/01/22 05:31:27;;;;;;;4.72;3.67;;;;;;;;;;4844465;29;20041;-89
2023/01/22 05:33:53;;;;;;;6.03;4.13;;;;;;;;;;4844629;29;20057;-89
2023/01/22 05:36:20;;;;;;;7.50;3.83;;;;;;;;;;4847595;29;20112;-92
2023/01/22 05:38:47;;;;;;;5.97;4.15;;;;;;;;;;4848173;29;20515;-96
2023/01/22 05:41:13;;;;;;;7.63;4.72;;;;;;;;;;4848455;29;20080;-96
2023/01/22 05:43:39;;;;;;;7.10;4.53;;;;;;;;;;4833029;29;20045;-96
2023/01/22 05:46:05;;;;;;;6.47;4.85;;;;;;;;;;4832868;29;20049;-96
2023/01/22 05:48:32;;;;;;;4.40;3.95;;;;;;;;;;4848464;29;20072;-96
2023/01/22 05:51:02;;;;;;;8.68;4.40;;;;;;;;;;4832749;29;20092;-95
2023/01/22 05:53:28;;;;;;;7.88;5.03;;;;;;;;;;4832606;29;20041;-96
2023/01/22 05:55:54;;;;;;;5.65;4.15;;;;;;;;;;4847726;29;20499;-91
2023/01/22 05:58:20;;;;;;;8.07;4.50;;;;;;;;;;4831816;29;20499;-89
2023/01/22 06:00:46;;;;;;;7.15;4.10;;;;;;;;;;4862579;29;20518;-90
2023/01/22 06:03:12;;;;;;;5.55;4.65;;;;;;;;;;4847003;29;20440;-91
2023/01/22 06:05:38;;;;;;;7.57;4.82;;;;;;;;;;4847127;29;20053;-90
2023/01/22 06:08:04;;;;;;;17.60;4.50;;;;;;;;;;4846634;29;20089;-89
2023/01/22 06:10:30;;;;;;;7.00;3.75;;;;;;;;;;4831667;29;20076;-91
2023/01/22 06:12:56;;;;;;;5.10;4.10;;;;;;;;;;4847427;29;20065;-91
2023/01/22 06:15:22;;;;;;;6.88;4.03;;;;;;;;;;4831530;29;20104;-93
2023/01/22 06:17:49;;;;;;;6.85;3.92;;;;;;;;;;4831273;29;20521;-89
2023/01/22 06:20:15;;;;;;;5.15;3.92;;;;;;;;;;4831077;29;20523;-89
2023/01/22 06:22:41;;;;;;;6.45;3.88;;;;;;;;;;4846428;29;20058;-89
2023/01/22 06:25:08;;;;;;;5.03;4.00;;;;;;;;;;4846314;29;20422;-89
2023/01/22 06:27:34;;;;;;;7.57;4.18;;;;;;;;;;4846160;29;20045;-89
2023/01/22 06:30:00;;;;;;;4.45;3.65;;;;;;;;;;4846404;29;20136;-88
2023/01/22 06:32:26;;;;;;;6.10;4.05;;;;;;;;;;4846092;29;20061;-89
2023/01/22 06:34:52;;;;;;;5.82;4.63;;;;;;;;;;4846142;29;20554;-89
2023/01/22 06:37:20;;;;;;;6.88;3.83;;;;;;;;;;4830618;29;20096;-89
2023/01/22 06:39:46;;;;;;;4.63;3.45;;;;;;;;;;4861747;29;20057;-89
2023/01/22 06:42:12;;;;;;;11.27;3.53;;;;;;;;;;4830632;29;20052;-90
2023/01/22 06:44:38;;;;;;;7.88;3.75;;;;;;;;;;4830608;29;20099;-89
2023/01/22 06:47:04;;;;;;;3.58;3.15;;;;;;;;;;4846062;29;20121;-89
2023/01/22 06:49:30;;;;;;;8.70;3.63;;;;;;;;;;4846113;29;20049;-88
2023/01/22 06:51:56;;;;;;;6.72;3.58;;;;;;;;;;4830536;29;20136;-89
2023/01/22 06:54:22;;;;;;;7.32;3.83;;;;;;;;;;4830457;29;20066;-89
2023/01/22 06:56:48;;;;;;;6.88;4.05;;;;;;;;;;4845654;29;20045;-89
2023/01/22 06:59:15;;;;;;;5.97;3.90;;;;;;;;;;4830756;29;20053;-90
2023/01/22 07:01:41;;;;;;;5.90;3.90;;;;;;;;;;4830942;29;20156;-89
2023/01/22 07:04:07;;;;;;;7.45;4.72;;;;;;;;;;4831192;29;20097;-96
2023/01/22 07:06:33;;;;;;;7.68;3.92;;;;;;;;;;4833256;29;20081;-95
2023/01/22 07:08:59;;;;;;;6.45;3.38;;;;;;;;;;4847458;29;20049;-96
2023/01/22 07:11:25;;;;;;;16.35;3.80;;;;;;;;;;4832744;29;20098;-90
2023/01/22 07:13:51;;;;;;;7.88;3.88;;;;;;;;;;4861774;29;20503;-94
2023/01/22 07:16:17;;;;;;;5.65;3.65;;;;;;;;;;4831150;29;20041;-93
2023/01/22 07:18:43;;;;;;;6.05;3.92;;;;;;;;;;4846407;29;20054;-89
2023/01/22 07:21:10;;;;;;;4.45;3.47;;;;;;;;;;4830606;29;20415;-91
2023/01/22 07:23:36;;;;;;;8.57;3.95;;;;;;;;;;4830497;29;20049;-89
2023/01/22 07:26:02;;;;;;;6.30;4.03;;;;;;;;;;4845508;29;20575;-92
2023/01/22 07:28:28;;;;;;;8.98;4.15;;;;;;;;;;4845760;29;20105;-91
2023/01/22 07:30:55;;;;;;;6.70;4.53;;;;;;;;;;4845474;29;20041;-89
2023/01/22 07:33:21;;;;;;;7.40;4.50;;;;;;;;;;4845920;29;20140;-95
2023/01/22 07:35:57;;;;;;;7.78;4.55;;;;;;;;;;4860908;29;20053;-89
2023/01/22 07:38:26;;;;;;;5.22;4.07;;;;;;;;;;4830858;29;20045;-90
2023/01/22 07:40:52;;;;;;;7.07;4.80;;;;;;;;;;4845617;29;20049;-92
2023/01/22 07:43:18;;;;;;;6.13;4.72;;;;;;;;;;4860508;29;20077;-92
2023/01/22 07:45:44;;;;;;;9.25;4.80;;;;;;;;;;4845436;29;20450;-89
2023/01/22 07:48:10;;;;;;;8.10;5.28;;;;;;;;;;4830316;29;20051;-91
2023/01/22 07:50:38;;;;;;;7.47;5.47;;;;;;;;;;4830239;29;20136;-89
2023/01/22 07:53:05;;;;;;;7.10;5.28;;;;;;;;;;4845292;29;20049;-94
2023/01/22 07:55:31;;;;;;;8.38;4.90;;;;;;;;;;4845139;29;20407;-91
2023/01/22 07:58:02;;;;;;;8.65;5.90;;;;;;;;;;4845054;29;20045;-89
2023/01/22 08:00:29;;;;;;;8.50;5.40;;;;;;;;;;4829766;29;20060;-93
2023/01/22 08:02:55;;;;;;;9.93;4.93;;;;;;;;;;4844917;29;20095;-91
2023/01/22 08:05:21;;;;;;;8.05;5.65;;;;;;;;;;4830780;29;20057;-91
2023/01/22 08:07:47;;;;;;;9.60;4.50;;;;;;;;;;4829633;29;20057;-89
2023/01/22 08:10:14;;;;;;;10.23;4.50;;;;;;;;;;4844535;29;20045;-90
2023/01/22 08:12:43;;;;;;;5.32;4.50;;;;;;;;;;4844741;29;20436;-91
2023/01/22 08:15:10;;;;;;;9.70;5.07;;;;;;;;;;4830170;29;20049;-90
2023/01/22 08:17:37;;;;;;;9.23;6.00;;;;;;;;;;4844553;29;20136;-90
2023/01/22 08:20:03;;;;;;;7.28;5.97;;;;;;;;;;4844606;29;20149;-89
2023/01/22 08:22:29;;;;;;;7.43;5.88;;;;;;;;;;4844674;29;20046;-89
2023/01/22 08:24:55;;;;;;;8.38;6.05;;;;;;;;;;4845556;29;20056;-95
2023/01/22 08:27:22;;;;;;;9.75;5.75;;;;;;;;;;4844983;29;20080;-94
2023/01/22 08:29:51;;;;;;;11.40;6.97;;;;;;;;;;4845248;29;20056;-94
2023/01/22 08:32:20;;;;;;;8.65;6.57;;;;;;;;;;4845509;29;20491;-93
2023/01/22 08:34:46;;;;;;;10.52;6.18;;;;;;;;;;4830442;29;20053;-94
2023/01/22 08:37:12;;;;;;;6.90;5.95;;;;;;;;;;4845313;29;20140;-95
2023/01/22 08:39:39;;;;;;;9.82;6.60;;;;;;;;;;4830602;29;20053;-90
2023/01/22 08:42:05;;;;;;;9.27;5.72;;;;;;;;;;4845530;29;20072;-94
2023/01/22 08:44:31;;;;;;;10.65;6.32;;;;;;;;;;4845169;29;20046;-91
2023/01/22 08:46:57;;;;;;;9.48;6.07;;;;;;;;;;4845240;29;20097;-89
2023/01/22 08:49:23;;;;;;;10.90;5.95;;;;;;;;;;4844317;29;20050;-89
2023/01/22 08:51:49;;;;;;;6.95;5.68;;;;;;;;;;4844269;29;20084;-90
2023/01/22 08:54:16;;;;;;;7.35;6.15;;;;;;;;;;4844883;29;20049;-91
2023/01/22 08:56:42;;;;;;;11.35;5.43;;;;;;;;;;4844283;29;20047;-93
2023/01/22 08:59:08;;;;;;;7.90;6.10;;;;;;;;;;4844708;29;20068;-92
2023/01/22 09:01:34;;;;;;;12.48;6.43;;;;;;;;;;4844507;29;20082;-93
2023/01/22 09:04:00;;;;;;;11.18;7.60;;;;;;;;;;4829076;29;20501;-89
2023/01/22 09:06:26;;;;;;;8.02;5.93;;;;;;;;;;4828900;29;20141;-90
2023/01/22 09:08:53;;;;;;;7.63;6.38;;;;;;;;;;4844903;29;20132;-90
2023/01/22 09:11:19;;;;;;;9.05;6.88;;;;;;;;;;4847528;29;20106;-88
2023/01/22 09:13:45;;;;;;;8.88;6.30;;;;;;;;;;4848125;29;20049;-90
2023/01/22 09:16:11;;;;;;;12.20;6.47;;;;;;;;;;4832124;29;20499;-89
2023/01/22 09:18:40;;;;;;;15.70;6.07;;;;;;;;;;4832184;29;20061;-91
2023/01/22 09:21:07;;;;;;;8.20;5.47;;;;;;;;;;4832189;29;20057;-89
2023/01/22 09:23:33;;;;;;;9.10;6.82;;;;;;;;;;4848120;29;20078;-89
2023/01/22 09:26:00;;;;;;;8.70;5.57;;;;;;;;;;4847798;29;20065;-92
2023/01/22 09:28:26;;;;;;;9.27;6.05;;;;;;;;;;4847708;29;20038;-89
2023/01/22 09:30:52;;;;;;;11.02;6.95;;;;;;;;;;4831994;29;20058;-91
2023/01/22 09:33:18;;;;;;;11.40;6.10;;;;;;;;;;4847345;29;20050;-90
2023/01/22 09:35:44;;;;;;;16.20;6.45;;;;;;;;;;4831661;29;20201;-90
2023/01/22 09:38:12;;;;;;;8.75;6.85;;;;;;;;;;4832190;29;20049;-90
2023/01/22 09:40:42;;;;;;;11.05;6.72;;;;;;;;;;4831992;29;20136;-89
2023/01/22 09:43:24;;;;;;;8.15;5.75;;;;;;;;;;4847201;29;20048;-89
2023/01/22 09:45:52;;;;;;;12.23;5.65;;;;;;;;;;4832061;29;20042;-89
2023/01/22 09:48:18;;;;;;;12.65;6.13;;;;;;;;;;4831366;29;20570;-90
2023/01/22 09:50:45;;;;;;;14.27;7.57;;;;;;;;;;4847055;29;20053;-89
2023/01/22 09:53:15;;;;;;;7.80;5.07;;;;;;;;;;4847139;29;20135;-90
2023/01/22 09:55:48;;;;;;;8.48;6.45;;;;;;;;;;4831390;29;20509;-92
2023/01/22 09:58:16;;;;;;;11.30;6.03;;;;;;;;;;4847305;29;20060;-94
2023/01/22 10:00:53;;;;;;;8.48;6.22;;;;;;;;;;4832416;29;20514;-94
2023/01/22 10:03:22;;;;;;;10.45;5.25;;;;;;;;;;4847816;29;20053;-92
2023/01/22 10:05:52;;;;;;;9.10;5.45;;;;;;;;;;4832676;29;20046;-92
2023/01/22 10:08:20;;;;;;;11.63;5.35;;;;;;;;;;4832598;29;20053;-92
2023/01/22 10:10:46;;;;;;;6.82;5.30;;;;;;;;;;4832219;29;20134;-92
2023/01/22 10:13:16;;;;;;;11.60;5.32;;;;;;;;;;4846859;29;20110;-90
2023/01/22 10:15:42;;;;;;;12.80;5.10;;;;;;;;;;4831503;29;20499;-90
2023/01/22 10:18:24;;;;;;;6.38;4.93;;;;;;;;;;4847128;29;20049;-90
2023/01/22 10:20:50;;;;;;;6.35;5.20;;;;;;;;;;4846331;29;20041;-91
2023/01/22 10:23:17;;;;;;;6.28;4.75;;;;;;;;;;4846677;29;20060;-89
2023/01/22 10:25:44;;;;;;;7.88;5.18;;;;;;;;;;4846596;29;20068;-89
2023/01/22 10:28:10;;;;;;;9.32;5.35;;;;;;;;;;4831576;29;20049;-89
2023/01/22 10:30:44;;;;;;;11.55;4.57;;;;;;;;;;4831180;29;20313;-89
2023/01/22 10:33:19;;;;;;;;;;;1.60;99.90;;;;;;4831453;29;20045;-90
2023/01/22 10:35:47;;;;;;;10.50;5.32;;;;;;;;;;4846523;29;19924;-89
2023/01/22 10:38:24;;;;;;;8.30;5.20;;;;;;;;;;4831224;29;20555;-90
2023/01/22 10:40:55;;;;;;;8.73;5.18;;;;;;;;;;4831309;29;20058;-89
2023/01/22 10:43:21;;;;;;;10.25;5.13;;;;;;;;;;4831077;29;20049;-90
2023/01/22 10:45:55;;;;;;;8.35;5.63;;;;;;;;;;4837398;23;21343;-90
2023/01/22 10:48:21;;;;;;;9.65;5.28;;;;;;;;;;4846264;29;20113;-92
2023/01/22 10:51:00;;;;;;;9.32;5.80;;;;;;;;;;4846632;29;20053;-90
2023/01/22 10:53:37;;;;;;;6.53;4.93;;;;;;;;;;4847250;29;20509;-89
2023/01/22 10:56:04;;;;;;;7.53;5.50;;;;;;;;;;4845929;29;20050;-91
2023/01/22 10:58:32;;;;;;;9.00;5.47;;;;;;;;;;4846132;29;20128;-90
2023/01/22 11:01:03;;;;;;;10.40;5.57;;;;;;;;;;4831296;29;20050;-90
2023/01/22 11:03:34;;;;;;;7.07;4.65;;;;;;;;;;4831615;29;20045;-90
2023/01/22 11:06:12;;;;;;;6.53;4.38;;;;;;;;;;4839456;29;20040;-89
2023/01/22 11:08:52;;;;;;;7.60;4.57;;;;;;;;;;4847061;29;20085;-90
2023/01/22 11:11:24;;;;;;;6.78;5.15;;;;;;;;;;4846467;29;20049;-91
2023/01/22 11:13:53;;;;;;;10.07;6.03;;;;;;;;;;4831744;29;20053;-92
2023/01/22 11:16:20;;;;;;;7.50;5.28;;;;;;;;;;4831386;29;20468;-91
2023/01/22 11:18:47;;;;;;;8.63;4.93;;;;;;;;;;4846548;29;20057;-90
2023/01/22 11:21:15;;;;;;;7.60;4.85;;;;;;;;;;4832119;29;20129;-91
2023/01/22 11:23:53;;;;;;;9.45;5.30;;;;;;;;;;4832322;29;20403;-93
2023/01/22 11:26:42;;;;;;;7.97;5.28;;;;;;;;;;4832925;29;20406;-92
2023/01/22 11:29:15;;;;;;;11.10;6.78;;;;;;;;;;4841161;29;20503;-92
2023/01/22 11:31:44;;;;;;;9.68;6.30;;;;;;;;;;4833166;29;20046;-90
2023/01/22 11:34:29;;;;;;;7.75;5.53;;;;;;;;;;4833917;29;20054;-90
2023/01/22 11:36:55;;;;;;;8.10;4.90;;;;;;;;;;4830514;29;20560;-89
2023/01/22 11:39:32;;;;;;;12.50;6.15;;;;;;;;;;4830620;29;20128;-90
2023/01/22 12:36:37;;;;;;;;;;;;;;;;;;;;;
2023/01/22 12:46:05;;;;;;;;;;;;;;;;;;;;;
2023/01/22 12:48:58;;;;;;;7.32;5.13;;;;;;;;;;4864806;29;20061;-91
2023/01/22 13:05:34;;;;;;;7.72;5.28;;;;;;;;;;4830260;29;20054;-91
2023/01/22 13:08:20;;;;;;;9.32;5.28;;;;;;;;;;4814554;29;20054;-91
2023/01/22 13:11:19;;;;;;;16.88;6.53;;;;;;;;;;4829502;29;20492;-90
2023/01/22 13:13:50;;;;;;;9.13;5.30;;;;;;;;;;4794713;29;20057;-90
2023/01/22 13:16:18;;;;;;;9.20;5.28;;;;;;;;;;4814339;29;20046;-91
2023/01/22 13:18:46;;;;;;;6.68;5.10;;;;;;;;;;4814603;29;20437;-90
2023/01/22 13:21:16;;;;;;;12.38;6.82;;;;;;;;;;4815311;29;20050;-90
2023/01/22 13:23:44;;;;;;;10.52;5.93;;;;;;;;;;4814142;29;20050;-91
2023/01/22 13:26:19;;;;;;;13.40;5.38;;;;;;;;;;4814276;29;20137;-91
2023/01/22 13:28:50;;;;;;;14.25;6.25;;;;;;;;;;4814695;29;20049;-91
2023/01/22 13:31:19;;;;;;;9.90;5.13;;;;;;;;;;4814225;29;20057;-91
2023/01/22 13:33:55;;;;;;;9.40;5.68;;;;;;;;;;4814636;29;20106;-91
2023/01/22 13:36:21;;;;;;;9.48;6.07;;;;;;;;;;4814262;29;20057;-91
2023/01/22 13:39:02;;;;;;;7.13;5.32;;;;;;;;;;4814611;29;20560;-91
2023/01/22 13:41:39;;;;;;;8.20;5.60;;;;;;;;;;4814444;29;20054;-91
2023/01/22 13:44:15;;;;;;;7.57;5.18;;;;;;;;;;4814348;29;20069;-91
2023/01/22 13:46:48;;;;;;;7.80;5.05;;;;;;;;;;4815198;29;20057;-91
2023/01/22 13:49:23;;;;;;;8.05;5.85;;;;;;;;;;4815802;29;20480;-92
2023/01/22 13:51:50;;;;;;;8.70;5.82;;;;;;;;;;4814369;29;20046;-91
2023/01/22 13:54:38;;;;;;;8.57;5.03;;;;;;;;;;4813253;29;20136;-92
2023/01/22 13:57:06;;;;;;;13.75;5.72;;;;;;;;;;4814581;29;20046;-92
2023/01/22 13:59:35;;;;;;;9.88;6.70;;;;;;;;;;4799021;29;20053;-91
2023/01/22 14:02:11;;;;;;;7.95;6.07;;;;;;;;;;4791740;29;20058;-92
2023/01/22 14:04:37;;;;;;;11.13;6.40;;;;;;;;;;4825918;29;20492;-92
2023/01/22 14:07:22;;;;;;;9.15;5.53;;;;;;;;;;4847701;29;20050;-92
2023/01/22 14:09:48;;;;;;;;;;;;;;;;;;4832674;29;20128;-91
2023/01/22 14:12:16;;;;;;;7.25;5.03;;;;;;;;;;4847234;29;19975;-92
2023/01/22 14:14:43;;;;;;;13.55;6.38;;;;;;;;;;4847422;29;20555;-92
2023/01/22 14:17:21;;;;;;;9.18;5.93;;;;;;;;;;4832749;29;20053;-93
2023/01/22 14:19:48;;;;;;;9.65;6.10;;;;;;;;;;4832652;29;20448;-92
2023/01/22 14:22:14;;;;;;;9.00;6.07;;;;;;;;;;4832840;29;20478;-92
2023/01/22 14:24:40;;;;;;;6.10;4.90;;;;;;;;;;4832799;29;20046;-91
2023/01/22 14:27:06;;;;;;;9.30;5.78;;;;;;;;;;4832890;29;20061;-91
2023/01/22 14:29:35;;;;;;;16.83;6.65;;;;;;;;;;4832035;29;20050;-92
2023/01/22 14:32:01;;;;;;;10.05;5.68;;;;;;;;;;4816581;29;20106;-92
2023/01/22 14:34:27;;;;;;;18.85;6.22;;;;;;;;;;4831547;29;20049;-92
2023/01/22 14:36:53;;;;;;;11.35;6.15;;;;;;;;;;4831636;29;20049;-91
2023/01/22 14:39:20;;;;;;;15.07;6.32;;;;;;;;;;4831771;29;20064;-91
2023/01/22 14:41:49;;;;;;;10.93;6.57;;;;;;;;;;4831192;29;20136;-91
2023/01/22 14:44:15;;;;;;;9.80;6.15;;;;;;;;;;4831252;29;20084;-91
2023/01/22 14:46:41;;;;;;;10.07;5.78;;;;;;;;;;4831396;29;20050;-91
2023/01/22 14:49:07;;;;;;;16.02;7.15;;;;;;;;;;4831006;29;20049;-90
2023/01/22 14:51:33;;;;;;;10.15;6.78;;;;;;;;;;4816088;29;20082;-91
2023/01/22 14:54:00;;;;;;;12.35;6.05;;;;;;;;;;4831291;29;20046;-91
2023/01/22 14:56:26;;;;;;;13.15;6.38;;;;;;;;;;4831219;29;20079;-90
2023/01/22 14:58:52;;;;;;;12.82;5.40;;;;;;;;;;4816236;29;20045;-90
2023/01/22 15:01:20;;;;;;;11.18;6.15;;;;;;;;;;4830849;29;20132;-91
2023/01/22 15:03:46;;;;;;;9.88;5.82;;;;;;;;;;4831010;29;20065;-92
2023/01/22 15:06:12;;;;;;;11.60;5.90;;;;;;;;;;4830776;29;20495;-92
2023/01/22 15:08:38;;;;;;;10.18;5.50;;;;;;;;;;4830861;29;20045;-92
2023/01/22 15:11:07;;;;;;;10.00;5.63;;;;;;;;;;4831681;29;20049;-92
2023/01/22 15:13:34;;;;;;;13.00;5.97;;;;;;;;;;4831060;29;20558;-93
2023/01/22 15:16:06;;;;;;;13.95;6.15;;;;;;;;;;4831251;29;20190;-95
2023/01/22 16:20:13;;;;;;;11.50;5.65;;;2.80;99.90;;;;;;4783327;23;20334;-88
2023/01/22 16:22:45;;;;;;;10.60;6.32;;;;;;;;;;4813453;29;20085;-95
2023/01/22 16:25:19;;;;;;;9.32;5.47;;;;;;;;;;4831287;29;20080;-94
2023/01/22 16:27:46;;;;;;;10.90;5.65;;;;;;;;;;4815805;29;20109;-96
2023/01/22 16:30:12;;;;;;;8.75;6.07;;;;;;;;;;4815357;29;20061;-95
2023/01/22 16:32:41;;;;;;;7.72;5.97;;;;;;;;;;4830493;29;20041;-96
2023/01/22 16:35:08;;;;;;;13.88;6.43;;;;;;;;;;4836836;23;20053;-96
2023/01/22 16:37:35;;;;;;;10.00;5.78;;;;;;;;;;4830835;29;20054;-95
2023/01/22 16:40:02;;;;;;;11.07;5.93;;;;;;;;;;4831108;29;20110;-95
2023/01/22 16:42:34;;;;;;;7.97;5.72;;;;;;;;;;4831312;29;20042;-95
2023/01/22 16:45:00;;;;;;;8.93;5.47;;;;;;;;;;4830678;29;20077;-94
2023/01/22 16:48:06;;;;;;;11.52;5.65;;;;;;;;;;4831318;29;20124;-95
2023/01/22 16:51:02;;;;;;;10.35;6.43;;;;;;;;;;4830414;29;20132;-92
2023/01/22 16:53:43;;;;;;;;;;;;;;;;;;4832478;29;20101;-95
2023/01/22 16:56:36;;;;;;;10.07;5.38;;;;;;;;;;4845308;29;19930;-94
2023/01/22 16:59:24;;;;;;;11.13;5.40;;;;;;;;;;4825021;29;20136;-95
2023/01/22 17:02:26;;;;;;;8.25;5.40;;;;;;;;;;4829770;29;20046;-95
2023/01/22 17:04:56;;;;;;;13.50;5.65;;;;;;;;;;4831468;29;20091;-95
2023/01/22 17:10:56;;;;;;;17.65;4.85;;;;;;;;;;4860371;29;20043;-96
2023/01/22 17:13:31;;;;;;;10.35;5.07;;;;;;;;;;4829311;29;20627;-94
2023/01/22 17:16:08;;;;;;;12.73;5.07;;;;;;;;;;4815098;29;20057;-93
2023/01/22 17:18:43;;;;;;;19.00;5.35;;;;;;;;;;4814772;29;20194;-94